Time;durP1;ratioP1;P1;durP2;ratioP2;P2;SDS_P1;SDS_P2;PMS_P1;PMS_P2;Temp;Humidity;BMP_temperature;BMP_pressure;BME280_temperature;BME280_humidity;BME280_pressure;Samples;Min_cycle;Max_cycle;Signal;HPM_P1;HPM_P2
2022/08/12 00:47:00;;;;;;;5.13;2.35;;;;;;;;;;10589440;28;20130;-71
2022/08/12 00:52:11;;;;;;;2.75;2.30;;;;;;;;;;10584797;28;20043;-71
2022/08/12 00:57:16;;;;;;;4.35;2.40;;;;;;;;;;10587576;28;20042;-71
2022/08/12 01:02:23;;;;;;;5.28;2.70;;;;;;;;;;10591237;28;20082;-71
2022/08/12 01:13:09;;;;;;;4.43;2.45;;;;;;;;;;10586446;28;20108;-70
2022/08/12 01:18:32;;;;;;;;;;;;;;;;;;10603162;28;20039;-70
2022/08/12 01:24:01;;;;;;;3.67;2.73;;;;;;;;;;10582976;28;19919;-71
2022/08/12 01:29:37;;;;;;;5.28;2.55;;;;;;;;;;10583319;28;20062;-70
2022/08/12 01:34:45;;;;;;;3.47;2.17;;;;;;;;;;10583744;28;20364;-70
2022/08/12 01:39:51;;;;;;;5.38;2.80;;;;;;;;;;10580190;28;20209;-71
2022/08/12 01:45:28;;;;;;;5.13;2.92;;;;;;;;;;10579527;28;20031;-71
2022/08/12 01:51:09;;;;;;;5.13;2.88;;;;;;;;;;10588342;28;20074;-72
2022/08/12 01:56:20;;;;;;;6.18;2.90;;;;;;;;;;10581737;28;20032;-71
2022/08/12 02:01:29;;;;;;;3.35;2.70;;;;;;;;;;10585074;28;20092;-71
2022/08/12 02:11:59;;;;;;;5.32;3.17;;;;;;;;;;10583675;28;20131;-71
2022/08/12 02:17:07;;;;;;;;;;;;;;;;;;10580453;28;20058;-70
2022/08/12 02:22:16;;;;;;;6.03;2.97;;;;;;;;;;10585444;28;19930;-69
2022/08/12 02:27:19;;;;;;;5.20;2.97;;;;;;;;;;10584172;28;20046;-69
2022/08/12 02:32:22;;;;;;;4.05;2.55;;;;;;;;;;10577162;28;20431;-70
2022/08/12 02:37:29;;;;;;;7.28;3.08;;;;;;;;;;10577395;28;20040;-70
2022/08/12 02:42:34;;;;;;;5.15;3.38;;;;;;;;;;10580200;28;20159;-70
2022/08/12 02:47:42;;;;;;;4.78;3.10;;;;;;;;;;10588594;28;20089;-69
2022/08/12 02:53:04;;;;;;;5.65;2.78;;;;;;;;;;10581711;28;20048;-69
2022/08/12 02:58:08;;;;;;;4.95;3.05;;;;;;;;;;10581518;28;20186;-71
2022/08/12 03:03:17;;;;;;;5.22;3.10;;;;;;;;;;10579604;28;20040;-70
2022/08/12 03:08:24;;;;;;;6.30;2.97;;;;;;;;;;10577616;28;20040;-70
2022/08/12 03:13:38;;;;;;;6.55;3.25;;;;;;;;;;10581795;28;20076;-70
2022/08/12 03:18:42;;;;;;;4.38;3.03;;;;;;;;;;10587070;28;20020;-70
2022/08/12 03:23:49;;;;;;;5.32;3.33;;;;;;;;;;10576318;28;20047;-70
2022/08/12 03:28:55;;;;;;;5.82;3.45;;;;;;;;;;10584533;28;20036;-71
2022/08/12 03:34:00;;;;;;;8.25;3.63;;;;;;;;;;10580820;28;20111;-70
2022/08/12 03:39:26;;;;;;;5.68;3.45;;;;;;;;;;10581003;28;20039;-71
2022/08/12 04:00:44;;;;;;;5.03;3.25;;;;;;;;;;10586591;28;20039;-70
2022/08/12 04:05:48;;;;;;;4.65;3.25;;;;;;;;;;10584200;28;20121;-70
2022/08/12 04:16:21;;;;;;;6.53;3.40;;;;;;;;;;10586128;28;20051;-71
2022/08/12 04:21:24;;;;;;;9.90;3.60;;;;;;;;;;10590999;28;20512;-71
2022/08/12 04:26:29;;;;;;;7.10;3.60;;;;;;;;;;10591193;28;20047;-71
2022/08/12 04:31:32;;;;;;;5.63;3.47;;;;;;;;;;10588186;28;20399;-71
2022/08/12 04:36:36;;;;;;;7.10;3.53;;;;;;;;;;10587794;28;20024;-70
2022/08/12 04:41:41;;;;;;;6.22;3.70;;;;;;;;;;10587587;28;20051;-71
2022/08/12 04:47:01;;;;;;;6.32;3.60;;;;;;;;;;10587868;28;20040;-71
2022/08/12 04:52:05;;;;;;;7.20;3.25;;;;;;;;;;10587208;28;20040;-70
2022/08/12 04:57:09;;;;;;;7.90;3.78;;;;;;;;;;10586311;28;20043;-70
2022/08/12 05:02:12;;;;;;;6.00;3.72;;;;;;;;;;10588082;28;20048;-71
2022/08/12 05:07:22;;;;;;;5.60;3.15;;;;;;;;;;10583012;28;20100;-71
2022/08/12 05:12:28;;;;;;;6.50;3.45;;;;;;;;;;10592543;28;20395;-70
2022/08/12 05:17:31;;;;;;;6.50;3.72;;;;;;;;;;10587311;28;20058;-70
2022/08/12 05:22:38;;;;;;;10.70;3.80;;;;;;;;;;10585241;28;20114;-71
2022/08/12 05:27:44;;;;;;;6.72;3.80;;;;;;;;;;10590089;28;20120;-71
2022/08/12 05:33:04;;;;;;;8.95;3.50;;;;;;;;;;10581221;28;20120;-71
2022/08/12 05:43:41;;;;;;;11.07;4.80;;;;;;;;;;10582812;28;20039;-70
2022/08/12 05:48:49;;;;;;;5.88;3.20;;;;;;;;;;10585589;28;20044;-69
2022/08/12 05:53:52;;;;;;;10.98;3.38;;;;;;;;;;10583616;28;20039;-72
2022/08/12 05:58:58;;;;;;;5.97;3.03;;;;;;;;;;10581679;28;20103;-71
2022/08/12 06:04:00;;;;;;;5.22;3.20;;;;;;;;;;10583535;28;20366;-71
2022/08/12 06:09:03;;;;;;;6.80;2.80;;;;;;;;;;10583764;28;20050;-71
2022/08/12 06:14:07;;;;;;;;;;;;;;;;;;10584291;28;20391;-71
2022/08/12 06:19:15;;;;;;;4.18;2.90;;;;;;;;;;10586039;27;19919;-70
2022/08/12 06:24:23;;;;;;;3.50;2.45;;;;;;;;;;10580951;28;20407;-71
2022/08/12 06:29:27;;;;;;;5.95;2.78;;;;;;;;;;10578423;28;20062;-70
2022/08/12 06:34:51;;;;;;;5.93;2.97;;;;;;;;;;10575705;28;20573;-69
2022/08/12 06:40:14;;;;;;;5.22;2.88;;;;;;;;;;10575647;28;20059;-71
2022/08/12 06:45:18;;;;;;;6.82;3.28;;;;;;;;;;10569170;28;20974;-71
2022/08/12 06:50:22;;;;;;;5.93;3.10;;;;;;;;;;10579357;28;20082;-70
2022/08/12 06:55:25;;;;;;;6.93;2.90;;;;;;;;;;10578036;28;20096;-69
2022/08/12 07:00:29;;;;;;;7.43;3.07;;;;;;;;;;10579368;28;20035;-71
2022/08/12 07:05:36;;;;;;;8.13;2.72;;;;;;;;;;10578404;28;20054;-71
2022/08/12 07:10:41;;;;;;;4.97;2.53;;;;;;;;;;10578262;28;20046;-71
2022/08/12 07:15:45;;;;;;;4.35;2.42;;;;;;;;;;10579628;28;20043;-70
2022/08/12 07:20:49;;;;;;;5.32;2.70;;;;;;;;;;10586403;28;20275;-71
2022/08/12 07:25:55;;;;;;;4.32;2.42;;;;;;;;;;10569805;28;20136;-70
2022/08/12 07:31:02;;;;;;;4.63;2.45;;;;;;;;;;10584443;28;20040;-69
2022/08/12 07:36:07;;;;;;;4.53;2.78;;;;;;;;;;10591011;27;20066;-70
2022/08/12 07:41:11;;;;;;;10.07;3.45;;;;;;;;;;10587451;28;20040;-71
2022/08/12 07:46:18;;;;;;;6.95;2.80;;;;;;;;;;10617049;27;20115;-70
2022/08/12 07:51:23;;;;;;;10.73;4.15;;;;;;;;;;10585637;28;20039;-72
2022/08/12 07:56:29;;;;;;;6.95;3.10;;;;;;;;;;10587972;28;20036;-71
2022/08/12 08:01:32;;;;;;;4.68;3.05;;;;;;;;;;10581278;28;20059;-69
2022/08/12 08:06:39;;;;;;;5.63;2.85;;;;;;;;;;10579785;28;20043;-71
2022/08/12 08:17:05;;;;;;;4.87;2.67;;;;;;;;;;10587232;28;20276;-70
2022/08/12 08:22:10;;;;;;;4.15;2.55;;;;;;;;;;10583654;28;20052;-70
2022/08/12 08:27:12;;;;;;;2.88;2.30;;;;;;;;;;10583092;28;20032;-71
2022/08/12 08:32:15;;;;;;;4.90;2.90;;;;;;;;;;10578323;28;20043;-70
2022/08/12 08:37:21;;;;;;;4.68;2.40;;;;;;;;;;10578316;28;20078;-70
2022/08/12 08:42:39;;;;;;;3.38;2.25;;;;;;;;;;10585416;28;20048;-70
2022/08/12 08:47:45;;;;;;;4.07;2.75;;;;;;;;;;10585200;28;20126;-71
2022/08/12 08:52:50;;;;;;;9.93;2.63;;;;;;;;;;10578775;28;20388;-70
2022/08/12 08:57:54;;;;;;;6.60;3.00;;;;;;;;;;10574112;28;20053;-70
2022/08/12 09:02:56;;;;;;;2.40;2.20;;;;;;;;;;10579283;28;20047;-70
2022/08/12 09:08:03;;;;;;;7.40;2.80;;;;;;;;;;10581998;28;20086;-70
2022/08/12 09:13:28;;;;;;;4.93;2.90;;;;;;;;;;10609664;27;20453;-71
2022/08/12 09:18:50;;;;;;;3.83;2.50;;;;;;;;;;10583883;28;20113;-70
2022/08/12 09:23:57;;;;;;;3.10;2.53;;;;;;;;;;10576441;28;20048;-71
2022/08/12 09:29:20;;;;;;;3.22;2.50;;;;;;;;;;10576725;28;20032;-71
2022/08/12 09:34:44;;;;;;;3.63;2.15;;;;;;;;;;10578347;28;20055;-72
2022/08/12 09:39:53;;;;;;;3.17;2.33;;;;;;;;;;10579205;28;20058;-70
2022/08/12 09:45:22;;;;;;;3.70;2.30;;;;;;;;;;10580832;28;20133;-70
2022/08/12 09:50:46;;;;;;;3.22;2.30;;;;;;;;;;10578875;28;20065;-70
2022/08/12 09:55:56;;;;;;;4.35;2.17;;;;;;;;;;10576828;28;20454;-70
2022/08/12 10:01:20;;;;;;;5.35;2.35;;;;;;;;;;10586993;28;20035;-71
2022/08/12 10:06:28;;;;;;;3.15;2.10;;;;;;;;;;10584563;28;20044;-71
2022/08/12 10:17:16;;;;;;;4.20;2.25;;;;;;;;;;10589570;28;20040;-82
2022/08/12 10:22:19;;;;;;;5.95;2.70;;;;;;;;;;10575984;28;20050;-82
2022/08/12 10:33:14;;;;;;;3.33;2.15;;;;;;;;;;10587633;28;20036;-84
2022/08/12 10:38:21;;;;;;;4.68;2.30;;;;;;;;;;10590555;28;20053;-82
2022/08/12 10:43:43;;;;;;;3.40;2.60;;;;;;;;;;10578039;28;20044;-83
2022/08/12 10:48:57;;;;;;;5.47;2.58;;;;;;;;;;10583952;28;20264;-84
2022/08/12 10:54:20;;;;;;;5.05;2.45;;;;;;;;;;10584962;28;20036;-85
2022/08/12 10:59:30;;;;;;;4.18;2.22;;;;;;;;;;10577858;28;20112;-89
2022/08/12 11:04:56;;;;;;;3.85;2.50;;;;;;;;;;10571036;28;20050;-81
2022/08/12 11:10:00;;;;;;;4.70;2.60;;;;;;;;;;10579445;28;20042;-82
2022/08/12 11:15:07;;;;;;;4.20;2.50;;;;;;;;;;10583829;28;20054;-82
2022/08/12 11:20:23;;;;;;;;;;;;;;;;;;10581831;28;20074;-83
2022/08/12 11:25:33;;;;;;;4.50;2.28;;;;;;;;;;10591027;28;19924;-84
2022/08/12 11:30:58;;;;;;;2.88;2.17;;;;;;;;;;10577364;28;20512;-84
2022/08/12 11:36:06;;;;;;;3.58;2.25;;;;;;;;;;10584582;28;20054;-85
2022/08/12 11:41:16;;;;;;;2.42;2.30;;;;;;;;;;10583753;28;20153;-84
2022/08/12 11:46:36;;;;;;;3.03;2.72;;;;;;;;;;10584568;28;20031;-84
2022/08/12 11:51:39;;;;;;;3.55;1.92;;;;;;;;;;10577676;28;20040;-85
2022/08/12 11:56:42;;;;;;;2.53;2.28;;;;;;;;;;10577032;28;20036;-85
2022/08/12 12:02:05;;;;;;;4.03;1.47;;;;;;;;;;10579304;28;20103;-83
2022/08/12 12:07:08;;;;;;;3.10;1.83;;;;;;;;;;10583476;28;20047;-84
2022/08/12 12:12:13;;;;;;;3.38;1.88;;;;;;;;;;10579726;28;20067;-84
2022/08/12 12:17:18;;;;;;;3.85;2.70;;;;;;;;;;10581828;28;20545;-85
2022/08/12 12:22:23;;;;;;;1.50;1.40;;;;;;;;;;10583178;28;20050;-84
2022/08/12 12:27:44;;;;;;;2.10;1.90;;;;;;;;;;10595472;28;20061;-83
2022/08/12 12:33:09;;;;;;;1.85;1.73;;;;;;;;;;10584769;28;20621;-83
2022/08/12 12:38:19;;;;;;;3.13;1.80;;;;;;;;;;10589257;28;20047;-81
2022/08/12 12:43:27;;;;;;;2.80;2.08;;;;;;;;;;10605628;28;20138;-82
2022/08/12 12:48:47;;;;;;;2.83;1.80;;;;;;;;;;10598135;28;20257;-82
2022/08/12 12:53:50;;;;;;;2.50;1.67;;;;;;;;;;10595671;28;20101;-83
2022/08/12 12:59:11;;;;;;;1.67;1.58;;;;;;;;;;10587614;28;20035;-83
2022/08/12 13:04:35;;;;;;;6.05;1.60;;;;;;;;;;10583858;28;20240;-83
2022/08/12 13:09:42;;;;;;;3.10;1.80;;;;;;;;;;10589953;28;20050;-82
2022/08/12 13:14:49;;;;;;;2.20;2.00;;;;;;;;;;10587992;28;20054;-83
2022/08/12 13:19:54;;;;;;;1.35;1.25;;;;;;;;;;10584593;28;20439;-83
2022/08/12 13:24:58;;;;;;;4.25;1.90;;;;;;;;;;10590605;27;20088;-83
2022/08/12 13:30:03;;;;;;;3.10;1.80;;;;;;;;;;10583725;28;20035;-84
2022/08/12 13:35:15;;;;;;;2.38;1.40;;;;;;;;;;10584430;28;20541;-83
2022/08/12 13:40:35;;;;;;;2.03;1.83;;;;;;;;;;10586696;28;20070;-83
2022/08/12 13:45:37;;;;;;;1.30;1.20;;;;;;;;;;10580595;28;20152;-84
2022/08/12 13:50:42;;;;;;;1.65;1.30;;;;;;;;;;10580937;28;20078;-83
2022/08/12 13:55:45;;;;;;;1.20;1.08;;;;;;;;;;10584478;28;20040;-83
2022/08/12 14:00:51;;;;;;;2.47;1.83;;;;;;;;;;10591487;28;20036;-85
2022/08/12 14:06:11;;;;;;;1.65;1.08;;;;;;;;;;10584886;28;20067;-83
2022/08/12 14:11:17;;;;;;;2.15;1.00;;;;;;;;;;10585951;28;20210;-82
2022/08/12 14:16:30;;;;;;;1.65;1.00;;;;;;;;;;10582496;28;20109;-82
2022/08/12 14:21:52;;;;;;;2.97;1.08;;;;;;;;;;10578268;28;20043;-83
2022/08/12 14:27:04;;;;;;;1.35;0.98;;;;;;;;;;10588282;28;20035;-84
2022/08/12 14:32:11;;;;;;;1.83;1.00;;;;;;;;;;10583482;28;20034;-84
2022/08/12 14:37:22;;;;;;;4.97;1.17;;;;;;;;;;10579537;28;20608;-83
2022/08/12 14:42:45;;;;;;;1.10;1.00;;;;;;;;;;10611207;27;20568;-83
2022/08/12 14:47:53;;;;;;;1.10;1.00;;;;;;;;;;10584823;28;20065;-84
2022/08/12 14:53:09;;;;;;;1.30;0.95;;;;;;;;;;10580924;28;20061;-82
2022/08/12 14:58:32;;;;;;;3.60;1.27;;;;;;;;;;10579639;28;20040;-83
2022/08/12 15:03:36;;;;;;;0.82;0.80;;;;;;;;;;10580149;28;20570;-83
2022/08/12 15:09:01;;;;;;;0.98;0.90;;;;;;;;;;10583443;28;20038;-83
2022/08/12 15:14:05;;;;;;;1.38;1.00;;;;;;;;;;10577901;28;20147;-82
2022/08/12 15:19:09;;;;;;;1.23;1.13;;;;;;;;;;10614473;27;20365;-83
2022/08/12 15:24:36;;;;;;;1.42;1.10;;;;;;;;;;10581744;28;20058;-82
2022/08/12 15:29:40;;;;;;;1.75;0.95;;;;;;;;;;10582706;28;20072;-83
2022/08/12 15:34:46;;;;;;;1.20;1.10;;;;;;;;;;10594323;28;20447;-83
2022/08/12 15:39:56;;;;;;;2.47;1.20;;;;;;;;;;10581257;28;20063;-83
2022/08/12 15:45:05;;;;;;;2.15;1.23;;;;;;;;;;10582077;28;20050;-84
2022/08/12 15:50:10;;;;;;;3.95;1.23;;;;;;;;;;10579778;28;20073;-83
2022/08/12 15:55:27;;;;;;;1.02;0.95;;;;;;;;;;10594836;28;20167;-83
2022/08/12 16:00:37;;;;;;;6.45;1.40;;;;;;;;;;10586145;28;20130;-83
2022/08/12 16:05:41;;;;;;;1.17;1.08;;;;;;;;;;10587763;28;20265;-83
2022/08/12 16:11:06;;;;;;;6.45;1.73;;;;;;;;;;10588674;28;20035;-83
2022/08/12 16:16:17;;;;;;;4.78;1.60;;;;;;;;;;10587655;28;20158;-83
2022/08/12 16:21:26;;;;;;;2.47;1.50;;;;;;;;;;10589659;28;20058;-83
2022/08/12 16:26:51;;;;;;;1.92;1.20;;;;;;;;;;10585322;28;20039;-83
2022/08/12 16:31:57;;;;;;;1.77;1.20;;;;;;;;;;10591250;28;20091;-84
2022/08/12 16:37:01;;;;;;;2.65;1.25;;;;;;;;;;10585863;28;20088;-84
2022/08/12 16:42:07;;;;;;;1.52;1.30;;;;;;;;;;10587009;28;20035;-84
2022/08/12 16:47:12;;;;;;;2.35;1.42;;;;;;;;;;10584371;28;20047;-82
2022/08/12 16:52:17;;;;;;;1.73;1.38;;;;;;;;;;10588532;28;20028;-84
2022/08/12 16:57:22;;;;;;;1.65;1.25;;;;;;;;;;10587821;28;20046;-83
2022/08/12 17:02:38;;;;;;;1.30;1.20;;;;;;;;;;10584435;28;20051;-84
2022/08/12 17:07:43;;;;;;;2.30;1.40;;;;;;;;;;10591094;28;20047;-84
2022/08/12 17:12:55;;;;;;;3.13;1.20;;;;;;;;;;10586564;28;20105;-84
2022/08/12 17:18:00;;;;;;;1.65;1.33;;;;;;;;;;10587175;28;20067;-84
2022/08/12 17:23:25;;;;;;;1.75;1.30;;;;;;;;;;10583300;28;20028;-84
2022/08/12 17:28:37;;;;;;;2.50;1.30;;;;;;;;;;10584941;28;20055;-83
2022/08/12 17:33:44;;;;;;;1.40;1.20;;;;;;;;;;10588238;28;20062;-84
2022/08/12 17:38:48;;;;;;;1.88;1.30;;;;;;;;;;10584395;28;20040;-84
2022/08/12 17:43:54;;;;;;;2.40;1.30;;;;;;;;;;10585359;28;20059;-82
2022/08/12 17:49:00;;;;;;;2.63;1.40;;;;;;;;;;10587805;28;20058;-83
2022/08/12 17:54:21;;;;;;;1.65;1.23;;;;;;;;;;10589968;28;20051;-82
2022/08/12 17:59:26;;;;;;;3.45;1.50;;;;;;;;;;10586845;28;20042;-82
2022/08/12 18:04:50;;;;;;;1.88;1.48;;;;;;;;;;10584036;28;20039;-82
2022/08/12 18:10:08;;;;;;;2.35;1.30;;;;;;;;;;10617265;27;20047;-83
2022/08/12 18:15:13;;;;;;;2.35;1.50;;;;;;;;;;10588232;28;20526;-82
2022/08/12 18:20:38;;;;;;;3.42;1.80;;;;;;;;;;10586240;28;20058;-82
2022/08/12 18:31:28;;;;;;;1.90;1.38;;;;;;;;;;10582151;28;20032;-83
2022/08/12 18:36:51;;;;;;;4.80;1.40;;;;;;;;;;10584019;28;20924;-83
2022/08/12 18:41:58;;;;;;;2.63;1.67;;;;;;;;;;10582802;28;20536;-83
2022/08/12 18:47:06;;;;;;;1.63;1.50;;;;;;;;;;10584099;28;20089;-83
2022/08/12 18:52:10;;;;;;;3.03;1.67;;;;;;;;;;10582922;28;20397;-82
2022/08/12 18:57:14;;;;;;;2.75;1.80;;;;;;;;;;10589965;28;20028;-83
2022/08/12 19:02:38;;;;;;;2.92;1.55;;;;;;;;;;10582933;28;20366;-81
2022/08/12 19:07:44;;;;;;;1.80;1.45;;;;;;;;;;10596632;28;20107;-83
2022/08/12 19:18:28;;;;;;;4.40;1.70;;;;;;;;;;10583197;28;20043;-83
2022/08/12 19:23:34;;;;;;;5.95;1.70;;;;;;;;;;10582591;28;20047;-83
2022/08/12 19:28:38;;;;;;;2.97;1.73;;;;;;;;;;10587240;28;20109;-83
2022/08/12 19:33:44;;;;;;;2.78;1.52;;;;;;;;;;10587332;28;20081;-83
2022/08/12 19:39:07;;;;;;;2.38;1.70;;;;;;;;;;10582804;28;20036;-83
2022/08/12 19:44:24;;;;;;;4.18;1.63;;;;;;;;;;10578904;28;20055;-84
2022/08/12 19:49:30;;;;;;;5.15;1.80;;;;;;;;;;10583819;28;20036;-84
2022/08/12 19:54:35;;;;;;;3.03;1.95;;;;;;;;;;10588468;28;20496;-84
2022/08/12 19:59:40;;;;;;;5.82;1.98;;;;;;;;;;10583221;28;20170;-81
2022/08/12 20:05:05;;;;;;;3.42;2.10;;;;;;;;;;10580127;28;20032;-84
2022/08/12 20:10:33;;;;;;;3.90;1.80;;;;;;;;;;10586144;28;20182;-82
2022/08/12 20:15:38;;;;;;;2.42;1.65;;;;;;;;;;10595181;28;20092;-82
2022/08/12 20:20:48;;;;;;;3.88;2.58;;;;;;;;;;10582912;28;20040;-82
2022/08/12 20:25:56;;;;;;;2.92;1.90;;;;;;;;;;10585429;28;20070;-83
2022/08/12 20:31:12;;;;;;;4.43;2.15;;;;;;;;;;10585907;28;20024;-83
2022/08/12 20:36:23;;;;;;;3.65;2.10;;;;;;;;;;10582459;28;20050;-82
2022/08/12 20:41:44;;;;;;;5.00;1.88;;;;;;;;;;10583923;28;20061;-82
2022/08/12 20:46:54;;;;;;;4.18;2.50;;;;;;;;;;10588465;28;20039;-82
2022/08/12 20:52:01;;;;;;;4.00;2.10;;;;;;;;;;10618405;27;20051;-82
2022/08/12 20:57:07;;;;;;;2.33;1.80;;;;;;;;;;10590965;28;20092;-82
2022/08/12 21:02:12;;;;;;;5.35;1.95;;;;;;;;;;10592428;28;20043;-81
2022/08/12 21:07:18;;;;;;;3.95;1.80;;;;;;;;;;10585535;28;20069;-82
2022/08/12 21:12:27;;;;;;;2.60;1.90;;;;;;;;;;10580951;28;20035;-82
2022/08/12 21:17:39;;;;;;;3.97;2.13;;;;;;;;;;10586740;28;20043;-82
2022/08/12 21:23:03;;;;;;;3.30;2.08;;;;;;;;;;10585130;28;20138;-82
2022/08/12 21:28:08;;;;;;;3.65;2.20;;;;;;;;;;10592844;28;20046;-81
2022/08/12 21:33:11;;;;;;;3.47;2.37;;;;;;;;;;10589922;28;20050;-82
2022/08/12 21:38:18;;;;;;;6.63;2.17;;;;;;;;;;10585135;28;20320;-83
2022/08/12 21:43:27;;;;;;;3.70;2.00;;;;;;;;;;10584579;28;20151;-82
2022/08/12 21:48:49;;;;;;;6.75;2.70;;;;;;;;;;10587376;28;20046;-82
2022/08/12 21:54:01;;;;;;;3.75;2.35;;;;;;;;;;10585016;28;20507;-82
2022/08/12 21:59:10;;;;;;;3.47;2.20;;;;;;;;;;10583821;28;20127;-82
2022/08/12 22:09:39;;;;;;;6.00;2.50;;;;;;;;;;10578964;28;20101;-82
2022/08/12 22:14:45;;;;;;;2.92;2.10;;;;;;;;;;10580197;28;20044;-82
2022/08/12 22:19:48;;;;;;;4.78;2.45;;;;;;;;;;10584336;27;20040;-82
2022/08/12 22:24:53;;;;;;;5.95;2.22;;;;;;;;;;10577518;28;20069;-81
2022/08/12 22:35:30;;;;;;;2.75;2.35;;;;;;;;;;10586172;28;20042;-82
2022/08/12 22:40:57;;;;;;;3.50;2.58;;;;;;;;;;10587902;28;20589;-82
2022/08/12 22:51:29;;;;;;;4.72;2.22;;;;;;;;;;10584036;28;20040;-82
2022/08/12 22:56:54;;;;;;;4.03;2.80;;;;;;;;;;10583154;28;20179;-82
2022/08/12 23:01:57;;;;;;;3.53;2.55;;;;;;;;;;10584821;28;20380;-82
2022/08/12 23:07:04;;;;;;;4.28;2.67;;;;;;;;;;10584129;28;20051;-82
2022/08/12 23:12:10;;;;;;;7.13;2.70;;;;;;;;;;10576193;28;20028;-81
2022/08/12 23:17:26;;;;;;;4.53;2.45;;;;;;;;;;10581701;28;20039;-81
2022/08/12 23:22:43;;;;;;;3.75;2.70;;;;;;;;;;10583491;28;20067;-82
2022/08/12 23:33:34;;;;;;;4.45;2.85;;;;;;;;;;10582566;28;20043;-81
2022/08/12 23:38:56;;;;;;;7.13;4.15;;;;;;;;;;10580663;28;20043;-81
2022/08/12 23:44:07;;;;;;;4.65;2.97;;;;;;;;;;10581447;28;20078;-81
2022/08/12 23:49:10;;;;;;;5.50;2.92;;;;;;;;;;10581068;28;20032;-81
2022/08/12 23:54:35;;;;;;;4.77;2.90;;;;;;;;;;10575839;28;20287;-81
2022/08/12 23:59:48;;;;;;;4.43;3.00;;;;;;;;;;10579722;28;20539;-81
